Clemons, New York
Current Conditions -  °F | °C
As of 2:08 PM on Tuesday 21 Oct 2014 (Local Time) from KGFL Reporting Station
Light Rain Light Rain  
Wind Chill: 51°   Ceiling: 5500
Heat Index: 51°   Visibility: 10mi
Dew Point: 47°   Wind: 7mph
Humidity: 86%   Direction: 20°NNE
Pressure: 29.93"   Gusts: NA
Location:  43.64°N, 73.45°W
Report Text: KGFL 211808Z AUTO 02006KT 10SM -RA SCT009 SCT035 OVC055 11/08 A2993 RMK AO2 RAB1756 P0000 T01060083
Loading
Personal Weather Stations






























Interactive Weather Map
Tropical Storm Tracking
New forecast layout! Learn more

10-Day Weather Forecast

Advertisements
Track Severe Weather on mobile